Time;durP1;ratioP1;P1;durP2;ratioP2;P2;SDS_P1;SDS_P2;PMS_P1;PMS_P2;Temp;Humidity;BMP_temperature;BMP_pressure;BME280_temperature;BME280_humidity;BME280_pressure;Samples;Min_cycle;Max_cycle;Signal;HPM_P1;HPM_P2
2023/03/15 00:01:46;;;;;;;12.13;5.60;;;;;;;8.33;48.30;93877.13;5032200;28;20475;-71
2023/03/15 00:04:14;;;;;;;7.07;5.73;;;;;;;8.30;47.26;93874.81;5032260;28;20460;-70
2023/03/15 00:06:41;;;;;;;5.60;4.80;;;;;;;8.26;47.16;93863.81;5032250;28;20493;-71
2023/03/15 00:09:08;;;;;;;6.63;5.20;;;;;;;8.30;47.16;93849.50;5032487;28;20903;-71
2023/03/15 00:11:35;;;;;;;6.93;4.53;;;;;;;8.31;46.77;93853.75;5032396;28;20526;-71
2023/03/15 00:14:02;;;;;;;5.47;4.23;;;;;;;8.37;46.07;93855.00;5032383;28;20484;-71
2023/03/15 00:16:31;;;;;;;6.20;4.70;;;;;;;8.48;45.82;93857.47;5032224;28;20569;-70
2023/03/15 00:18:58;;;;;;;8.50;5.10;;;;;;;8.53;45.87;93857.03;5032085;28;21023;-71
2023/03/15 00:21:28;;;;;;;8.60;5.60;;;;;;;8.54;46.18;93861.28;5031926;28;20447;-70
2023/03/15 00:23:55;;;;;;;5.80;5.10;;;;;;;8.53;46.47;93862.25;5013766;28;20967;-70
2023/03/15 00:26:22;;;;;;;7.50;5.27;;;;;;;8.48;46.23;93849.63;5032370;28;20510;-71
2023/03/15 00:28:49;;;;;;;6.70;4.33;;;;;;;8.37;46.39;93855.84;5032078;28;20447;-72
2023/03/15 00:31:18;;;;;;;6.60;4.33;;;;;;;8.26;46.58;93860.38;4997606;28;20436;-72
2023/03/15 00:33:46;;;;;;;14.50;4.93;;;;;;;8.28;46.67;93861.06;5013213;28;20487;-71
2023/03/15 00:36:13;;;;;;;8.00;3.97;;;;;;;8.32;46.83;93854.59;5032198;28;20809;-71
2023/03/15 00:38:43;;;;;;;5.03;3.90;;;;;;;8.38;46.17;93854.91;5032026;28;20444;-70
2023/03/15 00:41:11;;;;;;;6.23;4.07;;;;;;;8.42;46.88;93852.81;5032087;28;20530;-71
2023/03/15 00:43:38;;;;;;;4.63;4.10;;;;;;;8.47;47.00;93845.38;5031979;28;20464;-71
2023/03/15 00:46:06;;;;;;;6.67;4.77;;;;;;;8.52;46.76;93845.75;5031996;28;20451;-71
2023/03/15 00:48:33;;;;;;;9.80;5.47;;;;;;;8.56;46.63;93841.88;5032123;28;20428;-71
2023/03/15 00:51:08;;;;;;;6.27;4.53;;;;;;;8.55;46.26;93842.84;5031855;28;20970;-70
2023/03/15 00:53:36;;;;;;;5.60;5.10;;;;;;;8.52;46.83;93832.69;5031728;28;20439;-71
2023/03/15 00:56:10;;;;;;;11.43;5.33;;;;;;;8.54;46.55;93833.34;5013511;28;20440;-70
2023/03/15 00:58:37;;;;;;;9.67;5.57;;;;;;;8.57;46.28;93827.84;5031915;28;20530;-70
2023/03/15 01:01:06;;;;;;;10.03;5.50;;;;;;;8.60;46.63;93832.78;5031929;28;20855;-70
2023/03/15 01:03:33;;;;;;;8.10;5.40;;;;;;;8.66;46.10;93837.44;5013305;28;20460;-69
2023/03/15 01:06:05;;;;;;;7.83;5.07;;;;;;;8.66;45.82;93832.19;5013273;28;20443;-70
2023/03/15 01:08:32;;;;;;;6.70;5.50;;;;;;;8.61;46.15;93823.97;5031783;28;20461;-72
2023/03/15 01:11:02;;;;;;;5.50;5.00;;;;;;;8.52;46.10;93822.22;5034151;28;20463;-71
2023/03/15 01:13:30;;;;;;;6.63;5.63;;;;;;;8.48;46.01;93820.03;5016952;28;20527;-71
2023/03/15 01:15:57;;;;;;;8.73;5.47;;;;;;;8.44;46.19;93813.47;5035667;28;20494;-71
2023/03/15 01:18:24;;;;;;;6.43;4.63;;;;;;;8.38;46.46;93801.75;5035744;28;20796;-72
2023/03/15 01:20:51;;;;;;;8.87;5.27;;;;;;;8.42;47.04;93802.31;5035322;28;20443;-71
2023/03/15 01:23:18;;;;;;;5.47;5.00;;;;;;;8.39;46.89;93798.22;5035434;28;20498;-70
2023/03/15 01:25:44;;;;;;;9.23;5.47;;;;;;;8.34;47.10;93792.56;5035207;28;20458;-70
2023/03/15 01:28:11;;;;;;;4.83;4.40;;;;;;;8.42;47.05;93797.09;5035628;28;20443;-71
2023/03/15 01:30:39;;;;;;;8.00;5.43;;;;;;;8.42;47.44;93797.09;5035441;28;20444;-71
2023/03/15 01:33:07;;;;;;;5.20;4.37;;;;;;;8.39;47.41;93795.59;5035349;28;20452;-70
2023/03/15 01:35:34;;;;;;;8.20;4.87;;;;;;;8.35;46.79;93791.59;5035150;28;21169;-71
2023/03/15 01:38:00;;;;;;;13.13;4.60;;;;;;;8.35;46.78;93788.97;5035057;28;20446;-69
2023/03/15 01:40:27;;;;;;;8.23;4.20;;;;;;;8.32;46.84;93781.41;5035295;28;20457;-70
2023/03/15 01:43:14;;;;;;;8.60;4.43;;;;;;;8.38;46.64;93780.84;5034896;28;20496;-72
2023/03/15 01:46:03;;;;;;;7.07;4.03;;;;;;;8.43;46.65;93778.66;5035218;28;20448;-71
2023/03/15 01:48:36;;;;;;;6.23;4.50;;;;;;;8.41;46.33;93780.59;5035095;28;20864;-71
2023/03/15 01:51:10;;;;;;;4.07;3.70;;;;;;;8.38;46.75;93775.63;5034725;28;20841;-72
2023/03/15 01:53:38;;;;;;;4.40;3.87;;;;;;;8.39;46.68;93774.69;5034932;28;20535;-71
2023/03/15 01:56:06;;;;;;;5.07;3.93;;;;;;;8.42;46.83;93770.97;5034867;28;20483;-70
2023/03/15 01:58:35;;;;;;;4.63;3.80;;;;;;;8.40;46.97;93757.22;5034899;28;20452;-71
2023/03/15 02:01:03;;;;;;;9.43;4.20;;;;;;;8.40;46.59;93759.81;5034558;28;20500;-70
2023/03/15 02:03:34;;;;;;;8.20;4.63;;;;;;;8.41;46.74;93764.91;5034589;28;20448;-71
2023/03/15 02:06:07;;;;;;;5.10;4.33;;;;;;;8.34;46.62;93763.81;5034788;28;20526;-70
2023/03/15 02:08:39;;;;;;;6.00;4.10;;;;;;;8.38;46.17;93755.56;5034360;28;20447;-72
2023/03/15 02:11:06;;;;;;;4.63;4.13;;;;;;;8.44;46.57;93759.38;5034401;28;20456;-70
2023/03/15 02:13:35;;;;;;;9.27;4.57;;;;;;;8.48;46.78;93752.91;4999612;28;20439;-71
2023/03/15 02:16:05;;;;;;;11.23;4.20;;;;;;;8.43;46.23;93739.44;5034689;28;21225;-71
2023/03/15 02:18:34;;;;;;;6.40;4.40;;;;;;;8.41;46.40;93724.88;5015674;28;20502;-70
2023/03/15 02:21:08;;;;;;;6.73;4.70;;;;;;;8.34;46.82;93727.22;5015187;28;20931;-72
2023/03/15 02:23:35;;;;;;;7.93;3.97;;;;;;;8.38;46.51;93725.97;5034191;28;20443;-71
2023/03/15 02:26:13;;;;;;;6.53;4.13;;;;;;;8.34;46.54;93727.22;5034138;28;20450;-70
2023/03/15 02:28:42;;;;;;;7.70;3.87;;;;;;;8.08;48.22;93733.09;5034546;28;20444;-71
2023/03/15 02:31:09;;;;;;;5.40;4.57;;;;;;;7.94;48.30;93730.13;4999501;28;20447;-70
2023/03/15 02:33:41;;;;;;;11.33;5.80;;;;;;;7.75;48.49;93731.00;5033794;28;20518;-70
2023/03/15 02:36:10;;;;;;;9.47;5.27;;;;;;;7.81;48.46;93729.63;5034177;28;20488;-72
2023/03/15 02:38:37;;;;;;;11.90;5.10;;;;;;;7.77;48.45;93735.09;5033928;28;20449;-70
2023/03/15 02:41:05;;;;;;;8.60;6.03;;;;;;;7.70;48.35;93730.59;5034105;28;20476;-72
2023/03/15 02:43:33;;;;;;;6.30;5.70;;;;;;;7.74;48.84;93731.97;5033856;28;20454;-71
2023/03/15 02:46:03;;;;;;;13.70;5.70;;;;;;;7.75;49.16;93726.59;5033908;28;20833;-70
2023/03/15 02:48:33;;;;;;;13.07;8.33;;;;;;;7.62;49.30;93720.06;5033530;28;20698;-71
2023/03/15 02:51:00;;;;;;;11.37;7.33;;;;;;;7.46;50.29;93737.09;5015272;28;20438;-71
2023/03/15 02:53:29;;;;;;;14.07;7.33;;;;;;;7.49;50.38;93727.34;5033799;28;20534;-70
2023/03/15 02:55:56;;;;;;;13.37;8.23;;;;;;;7.47;50.54;93730.09;5014906;28;20481;-71
2023/03/15 02:58:23;;;;;;;20.27;10.87;;;;;;;7.32;51.12;93728.88;5033788;28;20451;-71
2023/03/15 03:00:51;;;;;;;11.63;7.43;;;;;;;7.34;50.16;93722.56;5033465;28;21239;-70
2023/03/15 03:03:19;;;;;;;16.30;9.03;;;;;;;7.28;50.81;93722.31;5033653;28;20847;-70
2023/03/15 03:05:46;;;;;;;17.20;10.33;;;;;;;7.23;51.29;93721.88;5033407;28;20496;-71
2023/03/15 03:08:15;;;;;;;22.93;10.30;;;;;;;7.23;51.66;93720.13;5033554;28;20497;-71
2023/03/15 03:10:42;;;;;;;17.53;8.37;;;;;;;7.30;52.12;93709.94;5033618;28;20472;-71
2023/03/15 03:13:09;;;;;;;13.53;9.03;;;;;;;7.37;52.15;93698.81;5033583;28;20440;-71
2023/03/15 03:15:36;;;;;;;13.10;8.90;;;;;;;7.43;52.51;93700.84;5032986;28;20543;-71
2023/03/15 03:18:02;;;;;;;16.07;8.17;;;;;;;7.49;51.57;93699.44;5033187;28;20442;-71
2023/03/15 03:20:30;;;;;;;16.30;9.00;;;;;;;7.47;51.14;93699.59;5014429;28;20443;-71
2023/03/15 03:22:57;;;;;;;12.00;7.90;;;;;;;7.37;51.09;93696.19;5033134;28;20946;-72
2023/03/15 03:25:27;;;;;;;15.13;8.07;;;;;;;7.41;51.47;93700.16;5033028;28;20469;-69
2023/03/15 03:27:56;;;;;;;17.27;9.00;;;;;;;7.43;51.98;93687.78;5033136;28;20492;-71
2023/03/15 03:30:23;;;;;;;11.63;8.67;;;;;;;7.47;52.28;93683.94;5032862;28;20458;-71
2023/03/15 03:32:49;;;;;;;12.27;8.00;;;;;;;7.46;52.51;93674.47;5032127;28;20453;-71
2023/03/15 03:35:16;;;;;;;15.97;7.03;;;;;;;7.45;52.68;93667.59;5032934;28;20486;-71
2023/03/15 03:37:45;;;;;;;9.63;6.00;;;;;;;7.47;53.71;93665.66;5024836;28;20510;-70
2023/03/15 03:40:12;;;;;;;6.83;5.60;;;;;;;7.44;54.34;93676.38;5033287;28;20806;-71
2023/03/15 03:42:39;;;;;;;8.70;4.93;;;;;;;7.35;54.58;93671.19;5033301;28;20439;-71
2023/03/15 03:45:07;;;;;;;6.27;5.60;;;;;;;7.39;55.10;93672.56;4997644;28;20456;-71
2023/03/15 03:47:34;;;;;;;8.90;6.37;;;;;;;7.44;55.35;93670.34;4981397;28;20497;-71
2023/03/15 03:50:01;;;;;;;5.83;5.23;;;;;;;7.47;55.42;93664.84;5032966;28;20455;-71
2023/03/15 03:52:28;;;;;;;6.77;4.60;;;;;;;7.53;55.05;93669.53;5033249;28;20802;-72
2023/03/15 03:54:56;;;;;;;11.20;5.87;;;;;;;7.60;55.94;93665.38;5032659;28;20970;-71
2023/03/15 03:57:23;;;;;;;11.07;7.47;;;;;;;7.19;55.76;93666.56;5032897;28;20445;-72
2023/03/15 03:59:49;;;;;;;12.87;8.60;;;;;;;7.14;55.41;93664.38;5032853;28;20512;-71
2023/03/15 04:02:16;;;;;;;12.20;8.40;;;;;;;7.07;55.63;93668.50;5032791;28;21225;-71
2023/03/15 04:04:43;;;;;;;12.57;8.30;;;;;;;7.08;55.71;93669.31;5014304;28;20493;-70
2023/03/15 04:07:10;;;;;;;19.37;9.90;;;;;;;7.07;56.51;93665.06;5032938;28;20450;-71
2023/03/15 04:09:36;;;;;;;15.90;7.80;;;;;;;6.79;57.86;93664.94;5014268;28;20450;-71
2023/03/15 04:12:06;;;;;;;14.55;9.30;;;;;;;6.28;59.75;93657.34;5013595;28;20488;-70
2023/03/15 04:14:32;;;;;;;11.43;7.20;;;;;;;6.01;61.00;93652.78;5032399;28;20642;-71
2023/03/15 04:17:02;;;;;;;11.93;7.53;;;;;;;6.13;60.95;93651.72;5032539;28;20488;-72
2023/03/15 04:19:29;;;;;;;13.07;7.40;;;;;;;6.15;60.63;93644.59;5032808;28;20438;-71
2023/03/15 04:21:56;;;;;;;10.07;7.10;;;;;;;6.06;59.46;93653.19;5033079;28;20447;-71
2023/03/15 04:24:23;;;;;;;12.27;7.87;;;;;;;6.06;59.94;93647.16;5047684;28;20807;-71
2023/03/15 04:26:50;;;;;;;14.07;10.27;;;;;;;5.98;60.16;93642.63;5053881;28;20932;-72
2023/03/15 04:29:18;;;;;;;76.47;33.17;;;;;;;6.06;60.14;93650.59;5051806;28;20448;-72
2023/03/15 04:31:44;;;;;;;55.33;26.03;;;;;;;6.21;59.33;93648.44;5051495;28;20503;-72
2023/03/15 04:34:12;;;;;;;30.47;14.87;;;;;;;6.30;59.76;93644.19;5045039;28;20474;-71
2023/03/15 04:36:39;;;;;;;20.53;11.20;;;;;;;6.35;59.92;93635.00;5045833;28;21006;-71
2023/03/15 04:39:06;;;;;;;23.33;10.90;;;;;;;6.46;59.63;93636.69;5052509;28;20453;-71
2023/03/15 04:41:34;;;;;;;22.40;10.07;;;;;;;6.58;59.40;93643.41;5033929;28;20449;-72
2023/03/15 04:44:02;;;;;;;10.40;8.00;;;;;;;6.66;58.56;93638.34;5053183;28;20519;-71
2023/03/15 04:46:31;;;;;;;12.40;7.90;;;;;;;6.78;57.73;93644.22;5056411;28;20496;-70
2023/03/15 04:48:58;;;;;;;15.43;7.20;;;;;;;6.87;57.28;93634.75;5056337;28;20528;-74
2023/03/15 04:51:25;;;;;;;8.63;7.00;;;;;;;6.90;57.03;93645.72;5056354;28;20448;-71
2023/03/15 04:53:52;;;;;;;11.40;6.87;;;;;;;6.92;57.04;93643.78;5056319;28;21187;-70
2023/03/15 04:56:19;;;;;;;14.23;7.80;;;;;;;6.98;57.35;93651.09;5055556;28;20485;-70
2023/03/15 04:58:45;;;;;;;34.27;15.37;;;;;;;6.95;56.35;93653.97;5056401;28;20459;-70
2023/03/15 05:01:13;;;;;;;37.83;20.00;;;;;;;7.04;56.91;93657.53;5055913;28;20475;-70
2023/03/15 05:03:41;;;;;;;36.63;18.83;;;;;;;7.04;55.84;93660.97;5056429;28;20519;-71
2023/03/15 05:06:08;;;;;;;50.17;23.00;;;;;;;6.97;56.41;93653.84;5055737;28;21205;-71
2023/03/15 05:08:35;;;;;;;75.33;37.20;;;;;;;6.88;57.25;93647.66;5055890;28;20937;-71
2023/03/15 05:11:02;;;;;;;79.23;35.43;;;;;;;6.99;57.46;93659.72;5037150;28;20540;-71
2023/03/15 05:13:29;;;;;;;81.43;39.00;;;;;;;7.07;56.53;93662.47;5055949;28;20503;-69
2023/03/15 05:15:56;;;;;;;62.53;28.10;;;;;;;7.14;57.39;93646.09;5055667;28;20542;-70
2023/03/15 05:18:23;;;;;;;61.07;29.50;;;;;;;7.23;58.12;93643.59;5036713;28;20499;-70
2023/03/15 05:20:54;;;;;;;43.30;23.90;;;;;;;7.33;58.23;93640.03;5056090;28;20449;-72
2023/03/15 05:23:23;;;;;;;38.90;19.50;;;;;;;7.54;57.99;93652.06;5055599;28;20942;-72
2023/03/15 05:25:53;;;;;;;37.17;16.60;;;;;;;7.73;57.69;93647.59;5055625;28;20449;-72
2023/03/15 05:28:20;;;;;;;34.23;18.20;;;;;;;7.89;56.54;93641.75;5055881;28;20492;-71
2023/03/15 05:30:47;;;;;;;38.13;16.53;;;;;;;7.92;56.27;93638.84;5055535;28;20446;-71
2023/03/15 05:33:14;;;;;;;23.37;13.67;;;;;;;7.66;56.34;93633.47;5055360;28;20463;-71
2023/03/15 05:35:42;;;;;;;16.80;12.23;;;;;;;7.59;56.57;93631.59;5053887;28;20555;-72
2023/03/15 05:38:13;;;;;;;27.37;12.93;;;;;;;7.57;56.93;93623.06;5055023;28;20478;-71
2023/03/15 05:40:40;;;;;;;24.93;13.70;;;;;;;7.46;58.19;93627.47;5054557;28;20460;-72
2023/03/15 05:43:06;;;;;;;19.97;12.93;;;;;;;7.44;58.44;93633.81;5054903;28;20449;-72
2023/03/15 05:45:33;;;;;;;23.53;12.00;;;;;;;7.55;60.70;93631.03;5054996;28;20448;-72
2023/03/15 05:48:00;;;;;;;17.17;8.73;;;;;;;7.80;63.44;93624.31;5055184;28;20452;-72
2023/03/15 05:50:27;;;;;;;10.50;7.97;;;;;;;7.97;61.28;93622.75;5054396;28;20453;-72
2023/03/15 05:52:54;;;;;;;13.23;7.70;;;;;;;8.07;65.00;93620.88;5055042;28;20446;-72
2023/03/15 05:55:23;;;;;;;9.90;6.60;;;;;;;8.21;63.93;93633.47;5054277;28;20446;-72
2023/03/15 05:57:50;;;;;;;16.40;6.67;;;;;;;8.32;61.39;93642.88;5054575;28;20456;-72
2023/03/15 06:00:18;;;;;;;10.83;6.90;;;;;;;8.42;61.11;93646.31;5055368;28;20458;-72
2023/03/15 06:02:46;;;;;;;11.47;7.40;;;;;;;8.52;60.11;93639.22;5054651;28;20459;-72
2023/03/15 06:05:13;;;;;;;11.43;6.60;;;;;;;8.57;58.88;93639.59;5054566;28;20457;-72
2023/03/15 06:07:40;;;;;;;10.83;7.93;;;;;;;8.55;58.33;93636.31;5036298;28;20456;-74
2023/03/15 06:10:07;;;;;;;16.00;10.10;;;;;;;8.60;59.53;93639.28;5034213;28;20444;-72
2023/03/15 06:12:35;;;;;;;29.10;13.60;;;;;;;8.87;59.64;93646.25;5040232;28;20513;-72
2023/03/15 06:15:02;;;;;;;15.93;11.30;;;;;;;8.95;56.50;93641.06;5054028;28;20497;-72
2023/03/15 06:17:29;;;;;;;13.47;9.63;;;;;;;8.52;56.27;93638.41;5054013;28;20495;-73
2023/03/15 06:19:55;;;;;;;34.50;14.47;;;;;;;8.51;56.87;93627.13;5054037;28;20972;-72
2023/03/15 06:22:23;;;;;;;23.10;12.50;;;;;;;8.97;55.67;93631.31;5054377;28;20455;-72
2023/03/15 06:24:50;;;;;;;17.27;11.87;;;;;;;9.49;54.33;93625.25;5054606;28;20451;-73
2023/03/15 06:27:20;;;;;;;26.83;11.17;;;;;;;9.71;53.75;93622.13;5053716;28;20513;-72
2023/03/15 06:29:49;;;;;;;17.60;11.90;;;;;;;9.57;52.32;93620.09;5018779;28;20463;-73
2023/03/15 06:32:15;;;;;;;21.70;11.67;;;;;;;9.52;53.34;93610.06;5054537;28;20546;-72
2023/03/15 06:34:42;;;;;;;23.33;12.30;;;;;;;9.45;53.54;93616.06;5053185;28;20518;-73
2023/03/15 06:37:12;;;;;;;25.43;10.10;;;;;;;9.51;55.55;93615.44;5035111;28;20880;-73
2023/03/15 06:39:39;;;;;;;15.50;10.50;;;;;;;9.53;53.49;93613.50;5054204;28;20825;-73
2023/03/15 06:42:07;;;;;;;33.93;12.00;;;;;;;9.62;53.32;93623.06;5053775;28;20904;-73
2023/03/15 06:44:34;;;;;;;25.30;10.83;;;;;;;9.63;53.43;93622.09;5053273;28;20449;-73
2023/03/15 06:47:02;;;;;;;18.63;11.53;;;;;;;9.49;53.97;93615.59;5035372;28;20466;-72
2023/03/15 06:49:29;;;;;;;17.77;10.97;;;;;;;9.68;54.49;93621.59;5042310;28;20455;-73
2023/03/15 06:51:56;;;;;;;26.07;13.53;;;;;;;9.81;52.68;93614.94;5047254;28;20527;-73
2023/03/15 06:54:23;;;;;;;25.80;14.73;;;;;;;9.78;53.13;93620.50;5050096;28;20440;-72
2023/03/15 06:56:50;;;;;;;21.20;13.50;;;;;;;9.91;51.83;93618.28;5053521;28;20542;-73
2023/03/15 06:59:17;;;;;;;21.30;11.67;;;;;;;10.23;52.32;93617.63;5053667;28;20445;-73
2023/03/15 07:01:43;;;;;;;18.90;11.93;;;;;;;10.62;50.94;93601.31;5053613;28;20448;-73
2023/03/15 07:04:14;;;;;;;29.20;12.20;;;;;;;10.88;49.96;93608.22;5053578;28;20452;-72
2023/03/15 07:06:41;;;;;;;19.40;10.00;;;;;;;10.90;49.47;93607.06;5053432;28;20452;-73
2023/03/15 07:09:08;;;;;;;12.57;8.57;;;;;;;11.23;51.02;93604.44;5034300;28;20515;-73
2023/03/15 07:11:35;;;;;;;19.43;9.67;;;;;;;11.52;48.81;93603.91;5034285;28;20429;-73
2023/03/15 07:14:02;;;;;;;22.47;9.63;;;;;;;11.46;48.76;93608.84;5053132;28;20457;-72
2023/03/15 07:16:28;;;;;;;12.97;8.73;;;;;;;11.41;47.68;93605.09;5052751;28;20992;-73
2023/03/15 07:18:58;;;;;;;22.03;9.67;;;;;;;11.44;48.20;93615.25;5052965;28;20870;-73
2023/03/15 07:21:26;;;;;;;20.07;10.40;;;;;;;11.47;48.04;93612.28;5052733;28;20445;-73
2023/03/15 07:23:53;;;;;;;19.23;8.57;;;;;;;11.43;47.82;93608.38;5053137;28;20437;-74
2023/03/15 07:26:20;;;;;;;21.37;9.63;;;;;;;11.50;46.95;93609.31;5053711;28;20808;-73
2023/03/15 07:28:46;;;;;;;26.50;7.67;;;;;;;11.39;45.82;93601.81;5052741;28;21038;-73
2023/03/15 07:31:13;;;;;;;19.00;10.20;;;;;;;11.40;46.01;93590.31;5052606;28;20994;-73
2023/03/15 07:33:40;;;;;;;13.47;8.60;;;;;;;11.44;46.14;93586.34;5052680;28;20548;-73
2023/03/15 07:36:08;;;;;;;10.57;6.83;;;;;;;11.57;46.41;93599.00;5033853;28;20477;-72
2023/03/15 07:38:37;;;;;;;9.67;6.23;;;;;;;11.43;44.89;93608.38;5052566;28;20849;-73
2023/03/15 07:41:05;;;;;;;9.37;6.73;;;;;;;11.58;46.31;93608.50;5052732;28;20507;-73
2023/03/15 07:43:32;;;;;;;9.80;6.60;;;;;;;11.71;44.87;93609.63;5052570;28;20446;-73
2023/03/15 07:46:00;;;;;;;11.93;6.73;;;;;;;11.72;45.30;93608.63;5033916;28;20438;-73
2023/03/15 07:48:28;;;;;;;9.30;7.40;;;;;;;11.77;44.81;93603.69;5052494;28;20468;-73
2023/03/15 07:50:55;;;;;;;7.50;6.07;;;;;;;12.05;46.55;93609.38;5017703;28;20469;-73
2023/03/15 07:53:22;;;;;;;7.23;6.53;;;;;;;12.30;44.05;93604.81;5052383;28;20452;-73
2023/03/15 07:55:50;;;;;;;12.00;7.37;;;;;;;12.65;43.28;93600.03;5052252;28;20966;-73
2023/03/15 07:58:17;;;;;;;6.97;6.10;;;;;;;12.98;43.03;93601.44;5052416;28;20787;-72
2023/03/15 08:00:43;;;;;;;6.50;5.70;;;;;;;13.10;42.14;93582.59;5052571;28;20729;-73
2023/03/15 08:03:10;;;;;;;10.97;5.60;;;;;;;13.10;42.20;93595.75;5052245;28;20560;-73
2023/03/15 08:05:37;;;;;;;6.40;5.77;;;;;;;12.95;42.88;93588.63;5052401;28;20677;-73
2023/03/15 08:08:04;;;;;;;13.60;6.93;;;;;;;12.97;42.98;93586.63;5052261;28;20449;-73
2023/03/15 08:10:31;;;;;;;12.57;7.40;;;;;;;13.04;42.60;93586.75;5052424;28;20445;-73
2023/03/15 08:12:59;;;;;;;8.57;6.43;;;;;;;12.88;43.77;93586.88;5033851;28;20496;-73
2023/03/15 08:15:26;;;;;;;13.80;7.37;;;;;;;12.70;43.73;93580.06;5052004;28;20932;-73
2023/03/15 08:17:52;;;;;;;9.93;6.37;;;;;;;12.68;45.16;93568.09;5052048;28;20992;-73
2023/03/15 08:20:19;;;;;;;10.47;6.30;;;;;;;12.93;43.97;93558.19;5051609;28;20454;-72
2023/03/15 08:22:48;;;;;;;7.30;5.70;;;;;;;13.14;44.38;93552.28;5052274;28;20924;-74
2023/03/15 08:25:16;;;;;;;8.43;5.73;;;;;;;13.15;43.47;93561.81;5052102;28;20453;-73
2023/03/15 08:27:43;;;;;;;7.47;5.33;;;;;;;13.35;43.69;93562.97;5052055;28;20439;-73
2023/03/15 08:30:14;;;;;;;16.97;6.43;;;;;;;13.21;43.70;93566.38;5051854;28;20520;-72
2023/03/15 08:32:41;;;;;;;11.00;5.27;;;;;;;13.04;42.66;93560.44;5051896;28;20464;-72
2023/03/15 08:35:09;;;;;;;6.20;4.53;;;;;;;13.14;42.80;93561.00;5052003;28;20477;-73
2023/03/15 08:37:36;;;;;;;8.60;5.60;;;;;;;13.36;42.06;93555.91;5052116;28;20490;-73
2023/03/15 08:40:08;;;;;;;7.37;5.50;;;;;;;13.47;40.79;93566.81;5033143;28;20450;-73
2023/03/15 08:42:35;;;;;;;7.77;5.77;;;;;;;13.32;42.06;93563.34;5051910;28;20453;-73
2023/03/15 08:45:02;;;;;;;12.73;5.07;;;;;;;13.33;42.24;93551.81;5051683;28;20525;-73
2023/03/15 08:47:30;;;;;;;6.40;5.50;;;;;;;13.30;41.47;93550.34;5051527;28;20454;-73
2023/03/15 08:49:57;;;;;;;10.63;4.43;;;;;;;13.29;41.35;93546.06;5051911;28;20433;-73
2023/03/15 08:52:24;;;;;;;5.30;4.80;;;;;;;13.33;41.46;93554.44;5051832;28;20454;-72
2023/03/15 08:54:50;;;;;;;16.40;5.60;;;;;;;13.25;41.63;93549.22;5052135;28;20534;-73
2023/03/15 08:57:17;;;;;;;7.87;5.57;;;;;;;13.21;42.05;93554.03;5051578;28;20509;-72
2023/03/15 08:59:44;;;;;;;8.07;4.80;;;;;;;13.11;42.15;93557.91;5051988;28;20503;-73
2023/03/15 09:02:12;;;;;;;9.40;5.70;;;;;;;13.24;43.38;93556.31;5051585;28;20446;-73
2023/03/15 09:04:40;;;;;;;9.53;6.70;;;;;;;13.55;42.83;93564.06;5051823;28;20486;-72
2023/03/15 09:07:07;;;;;;;10.80;5.23;;;;;;;13.78;42.10;93560.53;5051717;28;20865;-72
2023/03/15 09:09:33;;;;;;;28.27;5.83;;;;;;;13.93;42.04;93564.00;5051829;28;20447;-73
2023/03/15 09:12:00;;;;;;;11.00;6.73;;;;;;;13.98;40.92;93556.38;5051632;28;20450;-73
2023/03/15 09:14:27;;;;;;;7.90;5.20;;;;;;;13.80;41.37;93559.38;5032774;28;20437;-73
2023/03/15 09:16:54;;;;;;;17.40;8.43;;;;;;;13.81;41.09;93560.19;5051425;28;20510;-74
2023/03/15 09:19:21;;;;;;;7.17;5.20;;;;;;;13.83;41.75;93564.25;5051723;28;20430;-73
2023/03/15 09:21:50;;;;;;;18.60;6.70;;;;;;;13.72;41.59;93572.66;5051745;28;20446;-73
2023/03/15 09:24:17;;;;;;;8.63;6.33;;;;;;;13.61;42.21;93566.00;5051420;28;20534;-73
2023/03/15 09:26:43;;;;;;;12.83;6.37;;;;;;;13.40;41.99;93571.16;5051286;28;20493;-73
2023/03/15 09:29:10;;;;;;;8.73;5.53;;;;;;;13.35;42.73;93557.72;5051201;28;20492;-72
2023/03/15 09:31:37;;;;;;;7.80;6.40;;;;;;;13.17;41.96;93565.94;5052906;28;20486;-71
2023/03/15 09:34:04;;;;;;;14.80;7.10;;;;;;;13.18;42.26;93554.41;5055109;28;20492;-73
2023/03/15 09:36:31;;;;;;;8.60;5.57;;;;;;;12.95;42.91;93557.03;5054662;28;20540;-73
2023/03/15 09:39:00;;;;;;;14.80;5.47;;;;;;;13.08;42.69;93551.19;5056288;28;20496;-73
2023/03/15 09:41:40;;;;;;;5.77;4.63;;;;;;;13.25;43.90;93547.41;5059234;28;20504;-71
2023/03/15 09:44:24;;;;;;;8.40;4.80;;;;;;;13.20;42.63;93539.22;5054876;28;20876;-73
2023/03/15 09:47:08;;;;;;;9.50;5.37;;;;;;;12.92;42.12;93538.94;5054725;28;20953;-72
2023/03/15 09:49:42;;;;;;;6.27;4.70;;;;;;;12.82;42.92;93538.38;5037424;28;20455;-73
2023/03/15 09:52:21;;;;;;;8.07;5.27;;;;;;;12.95;43.48;93524.59;5054640;28;21015;-73
2023/03/15 09:54:54;;;;;;;5.67;5.03;;;;;;;13.06;42.55;93526.84;5054801;28;20860;-73
2023/03/15 09:57:23;;;;;;;5.93;4.67;;;;;;;13.18;43.15;93521.97;5054368;28;21042;-73
2023/03/15 09:59:53;;;;;;;4.93;4.53;;;;;;;13.25;42.60;93528.16;5055025;28;20507;-73
2023/03/15 10:02:24;;;;;;;8.40;5.03;;;;;;;13.35;42.61;93527.91;5054589;28;20466;-73
2023/03/15 10:04:56;;;;;;;6.27;5.07;;;;;;;13.50;42.40;93526.91;5054764;28;20542;-71
2023/03/15 10:07:23;;;;;;;10.47;5.30;;;;;;;13.40;42.80;93515.00;5054622;28;20453;-73
2023/03/15 10:09:51;;;;;;;5.53;4.73;;;;;;;13.46;42.60;93528.28;5054443;28;20446;-73
2023/03/15 10:12:27;;;;;;;7.03;4.17;;;;;;;13.46;42.62;93530.09;5054218;28;20495;-73
2023/03/15 10:15:19;;;;;;;7.63;5.07;;;;;;;13.46;42.45;93530.91;5054310;28;20448;-73
2023/03/15 10:17:58;;;;;;;5.60;4.00;;;;;;;13.17;42.49;93528.22;4992559;28;20510;-73
2023/03/15 10:20:27;;;;;;;5.13;4.73;;;;;;;12.90;43.33;93524.34;4992566;28;20544;-72
2023/03/15 10:22:59;;;;;;;5.13;4.60;;;;;;;13.06;43.23;93523.38;4992562;28;20448;-73
2023/03/15 10:25:29;;;;;;;6.33;4.70;;;;;;;12.94;43.02;93521.16;4992433;28;21104;-72
2023/03/15 10:27:59;;;;;;;7.77;4.73;;;;;;;13.04;43.11;93520.94;4992578;28;20453;-73
2023/03/15 10:30:28;;;;;;;6.80;5.47;;;;;;;13.09;42.64;93523.03;4992437;28;20992;-73
2023/03/15 10:32:59;;;;;;;9.80;6.43;;;;;;;13.09;42.48;93513.31;4992094;28;20461;-72
2023/03/15 10:35:26;;;;;;;5.30;4.63;;;;;;;12.98;43.22;93519.81;4992183;28;20478;-73
2023/03/15 10:37:53;;;;;;;5.47;3.97;;;;;;;12.96;42.67;93513.91;4992029;28;20873;-73
2023/03/15 10:40:45;;;;;;;6.33;4.00;;;;;;;12.79;42.06;93522.13;4992342;28;20815;-72
2023/03/15 10:43:16;;;;;;;4.57;4.00;;;;;;;12.77;42.35;93513.59;4991911;28;20457;-72
2023/03/15 10:45:47;;;;;;;6.80;4.53;;;;;;;12.70;43.52;93516.09;4992206;28;20890;-73
2023/03/15 10:48:14;;;;;;;9.47;4.63;;;;;;;12.73;43.38;93518.41;4943615;28;20919;-72
2023/03/15 10:50:41;;;;;;;6.67;4.83;;;;;;;12.71;43.45;93515.09;4991992;28;20495;-73
2023/03/15 10:53:19;;;;;;;5.17;4.67;;;;;;;12.69;43.90;93509.19;4991837;28;20468;-73
2023/03/15 10:55:48;;;;;;;5.40;4.90;;;;;;;12.83;43.90;93511.06;5046110;28;20533;-73
2023/03/15 10:58:22;;;;;;;6.07;5.47;;;;;;;12.99;44.73;93513.53;5053282;28;21007;-73
2023/03/15 11:00:51;;;;;;;7.90;4.53;;;;;;;13.08;43.72;93514.31;5053186;28;20450;-73
2023/03/15 11:03:20;;;;;;;258.40;140.67;;;;;;;13.05;42.51;93511.22;5018168;28;20990;-71
2023/03/15 11:05:49;;;;;;;22.57;16.30;;;;;;;13.00;42.69;93501.19;5053384;28;20445;-73
2023/03/15 11:08:19;;;;;;;122.77;63.60;;;;;;;12.92;43.73;93504.72;5053100;28;20452;-72
2023/03/15 11:10:55;;;;;;;37.73;20.97;;;;;;;12.87;43.24;93507.06;5053310;28;20945;-73
2023/03/15 11:13:24;;;;;;;86.30;50.33;;;;;;;12.63;43.31;93505.47;5052996;28;20537;-73
2023/03/15 11:16:00;;;;;;;5.67;4.80;;;;;;;12.62;42.33;93503.00;5053060;28;20445;-71
2023/03/15 11:18:31;;;;;;;8.13;6.33;;;;;;;12.68;44.08;93499.66;5052976;28;21055;-73
2023/03/15 11:20:58;;;;;;;7.43;5.10;;;;;;;12.82;42.78;93504.16;5018038;28;20464;-72
2023/03/15 11:23:28;;;;;;;8.53;5.30;;;;;;;12.87;43.45;93504.44;5053035;28;20445;-70
2023/03/15 11:25:56;;;;;;;7.70;4.80;;;;;;;13.01;42.75;93501.03;5053054;28;20539;-73
2023/03/15 11:28:27;;;;;;;8.50;7.17;;;;;;;12.93;42.86;93505.53;5053139;28;20513;-73
2023/03/15 11:30:58;;;;;;;6.37;5.43;;;;;;;12.94;42.81;93510.63;5052889;28;20503;-72
2023/03/15 11:33:38;;;;;;;6.30;5.37;;;;;;;13.10;43.36;93498.31;5052948;28;20465;-72
2023/03/15 11:36:12;;;;;;;4.90;4.40;;;;;;;13.20;43.00;93496.28;5052601;28;20451;-73
2023/03/15 11:38:43;;;;;;;9.30;4.77;;;;;;;13.10;42.03;93496.50;5052468;28;20496;-73